createdAt,value
2022-09-04T00:01:25.568Z,51.43
2022-09-04T00:04:21.209Z,50.85
2022-09-04T00:07:29.975Z,51.27
2022-09-04T00:10:51.779Z,52.80
2022-09-04T00:13:27.720Z,52.00
2022-09-04T00:16:12.567Z,52.08
2022-09-04T00:18:55.846Z,52.34
2022-09-04T00:22:01.571Z,51.99
2022-09-04T00:24:45.824Z,52.04
2022-09-04T00:27:19.964Z,52.80
2022-09-04T00:30:11.670Z,52.50
2022-09-04T00:33:05.341Z,52.34
2022-09-04T00:35:55.417Z,52.65
2022-09-04T00:38:26.600Z,52.85
2022-09-04T00:41:31.096Z,52.67
2022-09-04T00:44:47.618Z,52.53
2022-09-04T00:47:39.471Z,52.59
2022-09-04T00:50:48.602Z,52.24
2022-09-04T00:53:46.119Z,52.62
2022-09-04T00:56:59.045Z,52.82
2022-09-04T01:00:09.068Z,52.87
2022-09-04T01:02:43.154Z,53.15
2022-09-04T01:05:48.688Z,53.39
2022-09-04T01:08:35.667Z,53.41
2022-09-04T01:11:41.166Z,53.24
2022-09-04T01:14:18.775Z,53.67
2022-09-04T01:17:13.373Z,53.50
2022-09-04T01:20:15.209Z,53.37
2022-09-04T01:22:55.482Z,53.03
2022-09-04T01:26:24.529Z,54.02
2022-09-04T01:29:21.148Z,53.41
2022-09-04T01:32:28.460Z,53.85
2022-09-04T01:35:49.442Z,53.51
2022-09-04T01:38:51.095Z,54.31
2022-09-04T01:41:43.778Z,54.09
2022-09-04T01:44:13.358Z,54.10
2022-09-04T01:47:29.591Z,54.11
2022-09-04T01:50:10.619Z,54.05
2022-09-04T01:52:53.448Z,54.11
2022-09-04T01:55:37.014Z,53.79
2022-09-04T01:59:08.559Z,53.59
2022-09-04T02:02:00.038Z,54.14
2022-09-04T02:05:11.131Z,54.21
2022-09-04T02:08:34.335Z,54.32
2022-09-04T02:11:19.591Z,53.98
2022-09-04T02:14:27.703Z,54.28
2022-09-04T02:17:34.679Z,55.08
2022-09-04T02:20:25.782Z,55.42
2022-09-04T02:23:32.915Z,55.78
2022-09-04T02:26:52.291Z,54.95
2022-09-04T02:29:48.721Z,54.84
2022-09-04T02:32:26.198Z,54.95
2022-09-04T02:35:23.845Z,54.79
2022-09-04T02:38:20.142Z,54.84
2022-09-04T02:41:28.262Z,54.84
2022-09-04T02:44:48.169Z,54.82
2022-09-04T02:48:01.503Z,54.64
2022-09-04T02:51:14.815Z,54.90
2022-09-04T02:54:21.425Z,55.05
2022-09-04T02:57:15.022Z,54.75
2022-09-04T03:00:21.189Z,54.75
2022-09-04T03:03:03.241Z,54.73
2022-09-04T03:05:42.236Z,54.28
2022-09-04T03:08:43.014Z,54.57
2022-09-04T03:11:33.890Z,54.34
2022-09-04T03:14:15.850Z,55.01
2022-09-04T03:17:19.413Z,54.35
2022-09-04T03:20:12.364Z,54.16
2022-09-04T03:22:52.728Z,54.16
2022-09-04T03:25:28.471Z,54.27
2022-09-04T03:27:56.660Z,54.00
2022-09-04T03:30:27.571Z,55.00
2022-09-04T03:33:15.546Z,54.16
2022-09-04T03:36:14.473Z,54.15
2022-09-04T03:39:09.740Z,53.79
2022-09-04T03:42:05.157Z,53.28
2022-09-04T03:44:45.297Z,53.76
2022-09-04T03:47:58.170Z,53.51
2022-09-04T03:50:51.261Z,54.31
2022-09-04T03:53:45.716Z,54.05
2022-09-04T03:56:56.306Z,54.88
2022-09-04T04:00:11.526Z,54.78
2022-09-04T04:03:34.935Z,54.20
2022-09-04T04:06:35.772Z,54.67
2022-09-04T04:09:40.042Z,55.51
2022-09-04T04:12:25.600Z,55.48
2022-09-04T04:15:27.793Z,55.17
2022-09-04T04:18:32.748Z,55.35
2022-09-04T04:21:22.627Z,55.44
2022-09-04T04:24:12.619Z,55.18
2022-09-04T04:27:11.933Z,55.33
2022-09-04T04:30:10.054Z,54.87
2022-09-04T04:33:06.030Z,56.00
2022-09-04T04:36:34.024Z,55.16
2022-09-04T04:39:32.592Z,55.95
2022-09-04T04:42:24.563Z,55.12
2022-09-04T04:45:35.934Z,55.90
2022-09-04T04:48:53.124Z,56.49
2022-09-04T04:51:56.884Z,55.73
2022-09-04T04:54:51.499Z,56.20
2022-09-04T04:57:26.952Z,57.08
2022-09-04T05:00:26.803Z,57.54
2022-09-04T05:03:27.480Z,57.41
2022-09-04T05:06:23.418Z,56.96
2022-09-04T05:09:20.769Z,58.96
2022-09-04T05:12:25.009Z,58.54
2022-09-04T05:15:25.046Z,57.92
2022-09-04T05:18:40.638Z,57.84
2022-09-04T05:21:36.648Z,58.16
2022-09-04T05:24:20.518Z,58.64
2022-09-04T05:27:01.660Z,58.80
2022-09-04T05:30:05.101Z,57.45
2022-09-04T05:32:51.665Z,57.32
2022-09-04T05:35:40.756Z,57.16
2022-09-04T05:38:39.191Z,57.93
2022-09-04T05:41:27.196Z,57.42
2022-09-04T05:44:39.232Z,57.04
2022-09-04T05:47:54.224Z,57.31
2022-09-04T05:51:01.357Z,57.48
2022-09-04T05:53:38.556Z,57.50
2022-09-04T05:56:43.061Z,56.94
2022-09-04T06:00:15.177Z,57.21
2022-09-04T06:03:16.576Z,58.09
2022-09-04T06:06:07.452Z,57.60
2022-09-04T06:09:16.165Z,56.77
2022-09-04T06:12:27.695Z,56.56
2022-09-04T06:15:36.539Z,57.19
2022-09-04T06:18:52.744Z,56.26
2022-09-04T06:21:56.576Z,56.59
2022-09-04T06:24:57.116Z,56.45
2022-09-04T06:27:53.549Z,56.56
2022-09-04T06:30:21.838Z,56.63
2022-09-04T06:33:12.708Z,56.04
2022-09-04T06:35:56.717Z,56.43
2022-09-04T06:38:36.538Z,56.56
2022-09-04T06:41:39.286Z,56.79
2022-09-04T06:44:53.732Z,56.14
2022-09-04T06:47:56.791Z,55.63
2022-09-04T06:50:49.682Z,55.97
2022-09-04T06:53:37.315Z,56.05
2022-09-04T06:56:49.164Z,56.45
2022-09-04T07:00:01.756Z,55.67
2022-09-04T07:03:17.161Z,56.50
2022-09-04T07:06:09.796Z,57.54
2022-09-04T07:09:09.582Z,56.21
2022-09-04T07:12:01.882Z,56.40
2022-09-04T07:14:59.352Z,56.30
2022-09-04T07:18:11.158Z,56.63
2022-09-04T07:21:22.319Z,56.90
2022-09-04T07:24:14.347Z,56.33
2022-09-04T07:27:34.953Z,56.98
2022-09-04T07:30:17.361Z,56.68
2022-09-04T07:33:02.416Z,57.02
2022-09-04T07:35:55.504Z,56.85
2022-09-04T07:38:50.924Z,55.95
2022-09-04T07:41:42.230Z,56.31
2022-09-04T07:44:29.657Z,56.43
2022-09-04T07:47:20.561Z,56.58
2022-09-04T07:50:11.259Z,55.80
2022-09-04T07:53:24.559Z,55.71
2022-09-04T07:56:03.798Z,55.19
2022-09-04T07:58:55.285Z,55.94
2022-09-04T08:01:41.124Z,55.51
2022-09-04T08:04:21.060Z,55.12
2022-09-04T08:07:10.772Z,55.94
2022-09-04T08:09:59.286Z,55.23
2022-09-04T08:12:39.407Z,54.77
2022-09-04T08:15:52.735Z,54.17
2022-09-04T08:19:10.859Z,54.34
2022-09-04T08:21:47.166Z,53.59
2022-09-04T08:24:53.157Z,54.10
2022-09-04T08:28:13.163Z,52.99
2022-09-04T08:31:07.776Z,52.62
2022-09-04T08:34:11.964Z,52.24
2022-09-04T08:36:59.395Z,50.60
2022-09-04T08:40:33.287Z,50.25
2022-09-04T08:43:20.324Z,48.90
2022-09-04T08:46:35.808Z,48.94
2022-09-04T08:49:41.772Z,49.11
2022-09-04T08:55:24.307Z,46.53
2022-09-04T08:58:17.160Z,47.24
2022-09-04T09:01:42.612Z,45.79
2022-09-04T09:04:58.294Z,47.09
2022-09-04T09:08:16.259Z,44.49
2022-09-04T09:11:03.371Z,44.76
2022-09-04T09:14:08.484Z,44.44
2022-09-04T09:16:45.608Z,43.35
2022-09-04T09:19:43.034Z,42.81
2022-09-04T09:22:47.570Z,42.16
2022-09-04T09:25:30.311Z,42.12
2022-09-04T09:29:06.432Z,41.98
2022-09-04T09:32:07.254Z,41.85
2022-09-04T09:35:02.923Z,41.53
2022-09-04T09:37:53.950Z,41.91
2022-09-04T09:40:57.991Z,41.08
2022-09-04T09:43:52.160Z,40.60
2022-09-04T09:47:26.483Z,40.75
2022-09-04T09:50:12.704Z,39.92
2022-09-04T09:53:07.119Z,40.73
2022-09-04T09:56:17.703Z,41.61
2022-09-04T09:59:45.564Z,39.51
2022-09-04T10:02:44.800Z,38.20
2022-09-04T10:06:13.145Z,39.03
2022-09-04T10:09:27.983Z,37.65
2022-09-04T10:12:28.791Z,38.27
2022-09-04T10:15:52.842Z,37.44
2022-09-04T10:18:40.986Z,38.60
2022-09-04T10:22:05.980Z,37.73
2022-09-04T10:25:14.612Z,37.62
2022-09-04T10:28:16.233Z,36.54
2022-09-04T10:31:15.360Z,36.66
2022-09-04T10:34:08.357Z,36.65
2022-09-04T10:37:02.031Z,36.00
2022-09-04T10:40:14.386Z,34.55
2022-09-04T10:43:32.963Z,35.54
2022-09-04T10:46:29.973Z,37.74
2022-09-04T10:49:33.821Z,35.83
2022-09-04T10:52:24.605Z,35.38
2022-09-04T10:55:36.435Z,34.86
2022-09-04T10:58:15.897Z,36.58
2022-09-04T11:01:18.779Z,35.93
2022-09-04T11:04:45.849Z,35.56
2022-09-04T11:07:42.434Z,34.54
2022-09-04T11:10:26.626Z,35.85
2022-09-04T11:13:23.801Z,35.29
2022-09-04T11:16:24.578Z,34.32
2022-09-04T11:19:21.126Z,37.09
2022-09-04T11:22:22.826Z,34.56
2022-09-04T11:25:19.129Z,34.01
2022-09-04T11:28:28.009Z,33.91
2022-09-04T11:31:34.074Z,35.77
2022-09-04T11:34:55.865Z,35.23
2022-09-04T11:38:17.442Z,34.75
2022-09-04T11:41:37.801Z,33.18
2022-09-04T11:44:48.078Z,33.91
2022-09-04T11:48:16.019Z,32.29
2022-09-04T11:51:37.226Z,33.23
2022-09-04T11:54:41.156Z,32.16
2022-09-04T11:57:58.530Z,33.28
2022-09-04T12:00:50.376Z,31.71
2022-09-04T12:04:08.854Z,32.12
2022-09-04T12:06:49.484Z,30.98
2022-09-04T12:09:29.700Z,31.63
2022-09-04T12:12:21.237Z,30.79
2022-09-04T12:15:32.215Z,32.20
2022-09-04T12:18:33.687Z,30.57
2022-09-04T12:21:47.474Z,31.36
2022-09-04T12:24:45.024Z,30.49
2022-09-04T12:27:50.574Z,30.22
2022-09-04T12:30:49.451Z,30.36
2022-09-04T12:34:01.689Z,30.26
2022-09-04T12:37:06.192Z,31.57
2022-09-04T12:40:13.910Z,31.96
2022-09-04T12:43:20.527Z,30.65
2022-09-04T12:46:20.056Z,31.57
2022-09-04T12:49:26.261Z,30.59
2022-09-04T12:52:22.091Z,30.69
2022-09-04T12:55:43.595Z,30.63
2022-09-04T12:58:55.684Z,31.62
2022-09-04T13:01:45.579Z,29.94
2022-09-04T13:04:38.856Z,29.89
2022-09-04T13:08:07.017Z,30.26
2022-09-04T13:11:01.792Z,29.94
2022-09-04T13:14:14.587Z,31.25
2022-09-04T13:16:58.356Z,30.47
2022-09-04T13:19:55.033Z,32.35
2022-09-04T13:22:47.414Z,30.16
2022-09-04T13:25:56.055Z,31.35
2022-09-04T13:29:03.183Z,32.56
2022-09-04T13:31:50.100Z,31.21
2022-09-04T13:34:41.887Z,31.28
2022-09-04T13:37:32.322Z,30.57
2022-09-04T13:40:55.086Z,30.68
2022-09-04T13:43:41.363Z,30.34
2022-09-04T13:46:23.494Z,30.07
2022-09-04T13:49:03.531Z,30.53
2022-09-04T13:51:44.821Z,30.92
2022-09-04T13:54:26.377Z,31.86
2022-09-04T13:57:17.083Z,31.50
2022-09-04T13:59:49.775Z,31.55
2022-09-04T14:02:25.175Z,31.79
2022-09-04T14:05:11.673Z,30.90
2022-09-04T14:07:49.265Z,30.94
2022-09-04T14:10:40.768Z,30.97
2022-09-04T14:13:25.644Z,29.97
2022-09-04T14:16:09.135Z,29.98
2022-09-04T14:19:15.414Z,30.92
2022-09-04T14:22:21.917Z,29.78
2022-09-04T14:25:25.669Z,30.74
2022-09-04T14:28:23.135Z,30.42
2022-09-04T14:31:20.937Z,31.12
2022-09-04T14:34:42.889Z,31.12
2022-09-04T14:37:20.180Z,30.71
2022-09-04T14:39:57.940Z,30.24
2022-09-04T14:42:34.670Z,30.18
2022-09-04T14:45:35.810Z,31.61
2022-09-04T14:48:11.956Z,30.58
2022-09-04T14:50:57.690Z,30.86
2022-09-04T14:53:34.654Z,31.31
2022-09-04T14:56:31.618Z,31.00
2022-09-04T14:59:31.517Z,32.77
2022-09-04T15:02:08.843Z,31.28
2022-09-04T15:04:57.979Z,30.58
2022-09-04T15:07:44.388Z,31.20
2022-09-04T15:10:47.772Z,31.27
2022-09-04T15:13:27.938Z,31.70
2022-09-04T15:16:14.038Z,31.22
2022-09-04T15:18:55.351Z,31.35
2022-09-04T15:22:04.477Z,31.37
2022-09-04T15:24:50.197Z,31.12
2022-09-04T15:27:38.017Z,31.53
2022-09-04T15:30:35.695Z,31.50
2022-09-04T15:33:19.826Z,30.99
2022-09-04T15:36:09.750Z,31.42
2022-09-04T15:38:45.910Z,30.99
2022-09-04T15:41:27.279Z,31.30
2022-09-04T15:44:21.616Z,32.32
2022-09-04T15:47:40.113Z,32.75
2022-09-04T15:50:22.973Z,32.94
2022-09-04T15:53:11.083Z,32.74
2022-09-04T15:55:46.974Z,32.29
2022-09-04T15:58:37.948Z,32.34
2022-09-04T16:01:32.671Z,32.63
2022-09-04T16:04:53.357Z,33.15
2022-09-04T16:07:47.366Z,32.58
2022-09-04T16:10:28.814Z,33.11
2022-09-04T16:13:22.347Z,32.81
2022-09-04T16:16:04.221Z,32.68
2022-09-04T16:18:40.272Z,33.32
2022-09-04T16:21:43.096Z,33.93
2022-09-04T16:24:25.724Z,33.39
2022-09-04T16:26:56.467Z,33.26
2022-09-04T16:29:41.139Z,33.54
2022-09-04T16:32:12.295Z,32.96
2022-09-04T16:34:54.060Z,33.60
2022-09-04T16:37:51.573Z,33.79
2022-09-04T16:41:25.784Z,33.19
2022-09-04T16:44:17.049Z,33.66
2022-09-04T16:47:04.568Z,33.66
2022-09-04T16:50:18.024Z,33.88
2022-09-04T16:53:13.591Z,33.98
2022-09-04T16:56:08.311Z,34.85
2022-09-04T16:59:00.732Z,35.02
2022-09-04T17:02:00.842Z,34.59
2022-09-04T17:04:40.085Z,34.75
2022-09-04T17:07:13.099Z,34.31
2022-09-04T17:10:09.458Z,34.67
2022-09-04T17:12:40.484Z,34.81
2022-09-04T17:16:07.133Z,35.10
2022-09-04T17:18:41.085Z,35.69
2022-09-04T17:28:56.383Z,36.38
2022-09-04T17:28:59.414Z,36.30
2022-09-04T17:31:55.952Z,37.50
2022-09-04T17:40:33.636Z,36.79
2022-09-04T17:40:56.106Z,37.38
2022-09-04T17:41:53.135Z,36.99
2022-09-04T17:45:00.255Z,37.21
2022-09-04T17:47:42.732Z,37.09
2022-09-04T17:50:19.498Z,36.85
2022-09-04T17:53:09.132Z,36.94
2022-09-04T17:55:49.048Z,37.32
2022-09-04T17:58:41.638Z,38.04
2022-09-04T18:01:41.836Z,38.57
2022-09-04T18:04:47.344Z,38.25
2022-09-04T18:08:09.831Z,39.21
2022-09-04T18:10:55.111Z,38.91
2022-09-04T18:13:52.147Z,39.32
2022-09-04T18:16:35.619Z,39.32
2022-09-04T18:19:26.646Z,39.22
2022-09-04T18:22:25.186Z,40.10
2022-09-04T18:25:16.879Z,40.26
2022-09-04T18:28:14.871Z,40.83
2022-09-04T18:36:48.613Z,40.62
2022-09-04T18:37:19.827Z,42.00
2022-09-04T18:37:47.396Z,42.45
2022-09-04T18:41:10.104Z,42.37
2022-09-04T18:50:23.674Z,41.75
2022-09-04T18:50:32.730Z,42.95
2022-09-04T18:51:05.777Z,42.92
2022-09-04T18:52:50.368Z,43.62
2022-09-04T18:55:34.993Z,42.87
2022-09-04T18:58:12.347Z,43.52
2022-09-04T19:00:53.691Z,43.48
2022-09-04T19:03:31.839Z,43.88
2022-09-04T19:06:32.848Z,44.92
2022-09-04T19:09:19.788Z,44.31
2022-09-04T19:11:57.061Z,43.84
2022-09-04T19:14:37.485Z,44.77
2022-09-04T19:17:19.242Z,44.95
2022-09-04T19:20:13.718Z,44.82
2022-09-04T19:22:58.611Z,45.66
2022-09-04T19:25:38.983Z,45.80
2022-09-04T19:28:18.153Z,45.65
2022-09-04T19:30:50.806Z,46.31
2022-09-04T19:33:22.281Z,46.60
2022-09-04T19:36:08.402Z,46.92
2022-09-04T19:45:56.270Z,46.99
2022-09-04T19:45:59.467Z,47.99
2022-09-04T19:46:01.873Z,48.55
2022-09-04T19:48:20.790Z,49.24
2022-09-04T19:53:22.246Z,48.60
2022-09-04T19:54:05.475Z,49.24
2022-09-04T19:57:31.239Z,49.87
2022-09-04T19:59:45.944Z,49.94
2022-09-04T20:02:38.059Z,49.91
2022-09-04T20:05:24.245Z,49.60
2022-09-04T20:08:20.067Z,50.08
2022-09-04T20:11:04.655Z,49.83
2022-09-04T20:14:13.634Z,50.33
2022-09-04T20:16:59.576Z,50.65
2022-09-04T20:19:48.596Z,51.25
2022-09-04T20:23:35.300Z,51.35
2022-09-04T20:26:20.839Z,51.32
2022-09-04T20:29:13.772Z,52.10
2022-09-04T20:32:02.794Z,52.49
2022-09-04T20:34:58.533Z,51.69
2022-09-04T20:37:41.245Z,52.01
2022-09-04T20:40:27.469Z,52.40
2022-09-04T20:43:26.985Z,52.58
2022-09-04T20:52:42.701Z,52.90
2022-09-04T20:52:52.614Z,51.88
2022-09-04T20:53:10.591Z,51.17
2022-09-04T20:58:04.106Z,51.10
2022-09-04T21:03:11.424Z,51.05
2022-09-04T21:03:40.272Z,50.77
2022-09-04T21:06:28.590Z,51.50
2022-09-04T21:09:24.548Z,51.50
2022-09-04T21:12:25.581Z,51.99
2022-09-04T21:15:28.325Z,51.47
2022-09-04T21:18:34.500Z,51.26
2022-09-04T21:21:31.168Z,51.46
2022-09-04T21:24:31.597Z,51.02
2022-09-04T21:27:34.334Z,51.25
2022-09-04T21:30:16.460Z,51.51
2022-09-04T21:33:28.050Z,51.26
2022-09-04T21:36:33.741Z,51.67
2022-09-04T21:39:40.215Z,51.75
2022-09-04T21:42:33.229Z,51.99
2022-09-04T21:45:28.304Z,51.19
2022-09-04T21:48:28.195Z,52.32
2022-09-04T21:51:34.045Z,52.57
2022-09-04T21:54:37.849Z,52.40
2022-09-04T22:02:25.930Z,52.88
2022-09-04T22:02:35.289Z,53.50
2022-09-04T22:03:52.047Z,53.38
2022-09-04T22:11:38.491Z,53.34
2022-09-04T22:13:41.039Z,53.34
2022-09-04T22:14:29.749Z,52.88
2022-09-04T22:17:25.565Z,52.66
2022-09-04T22:20:43.366Z,52.74
2022-09-04T22:24:09.697Z,53.10
2022-09-04T22:27:13.521Z,53.10
2022-09-04T22:30:00.410Z,53.54
2022-09-04T22:33:25.098Z,53.29
2022-09-04T22:37:00.863Z,53.08
2022-09-04T22:39:57.850Z,53.43
2022-09-04T22:43:04.223Z,53.45
2022-09-04T22:46:41.060Z,53.43
2022-09-04T22:49:48.517Z,52.87
2022-09-04T22:52:56.195Z,53.15
2022-09-04T22:56:00.656Z,53.60
2022-09-04T22:59:20.299Z,52.83
2022-09-04T23:03:02.313Z,53.70
2022-09-04T23:08:01.299Z,53.93
2022-09-04T23:13:52.005Z,53.31
2022-09-04T23:13:59.658Z,52.92
2022-09-04T23:16:17.369Z,53.14
2022-09-04T23:22:29.436Z,52.83
2022-09-04T23:26:49.408Z,53.69
2022-09-04T23:26:59.942Z,53.63
2022-09-04T23:30:02.526Z,54.66
2022-09-04T23:33:01.252Z,53.79
2022-09-04T23:35:44.380Z,53.84
2022-09-04T23:38:35.274Z,53.80
2022-09-04T23:41:53.382Z,54.47
2022-09-04T23:44:54.446Z,53.85
2022-09-04T23:47:56.184Z,54.23
2022-09-04T23:51:25.788Z,54.15
2022-09-04T23:54:40.758Z,54.68
2022-09-04T23:57:41.271Z,55.11
